Portada
METAR-TAF:

METAR-TAF

Aeropuertos :

Morón de la Frontera, España

Base Aérea de Morón

latitud: 37-09N, longitud: 005-37W, altitud: 87 m

Observación

El informe se hizo hace 13 minutos, a las 09:00 UTC
Viento 5 kt del noreste, variando entre norte y este
Temperatura 19°C
Humedad 64%
Presión 1016 hPa
Visibilidad 10 km o más
sin nubes por debajo de 1500 m y sin presencia de cumulonimbus.

METAR: LEMO 240900Z 04005KT 360V080 CAVOK 19/12 Q1016 NOSIG

Hora: 11:13 (09:13 UTC)

Pronóstico

El informe se hizo hace 1 hora y 13 minutos, a las 08:00 UTC
Pronóstico válido del 24 a las 09 UTC al 24 a las 18 UTC
Viento 6 kt del suroeste
Visibilidad 10 km o más
Escasas nubes a una altura de 4500 ft
Probabilidad 30% :
Temporalmente
del 24 a las 14 UTC al 24 a las 18 UTC
Escasas nubes a una altura de 4000 ft, Cumulonimbus.

TAF: LEMO 240800Z 2409/2418 22006KT 9999 FEW045 PROB30 TEMPO 2414/2418 FEW040CB

Observaciones y pronósticos meteorológicos de más de 4000 aeropuertos (mensajes METAR y TAF).

Los puntos amarillos y rojos representan las estaciones disponibles.

Ponga el ratón en el punto deseado para ver el nombre de la estación.

Haga clic para ver las observaciones y los pronósticos meteorológicos.

Para cambiar el mapa : haga clic en los botones verdes con una cruz de color negro para hacer un zoom, en el botón verde con un guión para alejar o en las flechas verdes para mapas adyacentes.


METAR-TAF: